createdAt,value
2022-09-26T00:01:29.428Z,5.13
2022-09-26T00:03:59.220Z,5.50
2022-09-26T00:06:28.269Z,5.40
2022-09-26T00:08:56.706Z,5.65
2022-09-26T00:11:26.934Z,5.28
2022-09-26T00:13:57.057Z,5.38
2022-09-26T00:16:27.136Z,5.07
2022-09-26T00:18:56.949Z,5.65
2022-09-26T00:21:25.420Z,5.50
2022-09-26T00:23:53.402Z,5.40
2022-09-26T00:26:23.813Z,5.10
2022-09-26T00:28:51.815Z,4.82
2022-09-26T00:31:22.045Z,5.78
2022-09-26T00:33:51.329Z,5.65
2022-09-26T00:36:19.060Z,5.30
2022-09-26T00:38:46.760Z,5.60
2022-09-26T00:41:17.058Z,4.93
2022-09-26T00:43:46.474Z,5.18
2022-09-26T00:46:24.306Z,5.75
2022-09-26T00:49:00.108Z,5.70
2022-09-26T00:51:27.988Z,6.18
2022-09-26T00:53:56.822Z,6.47
2022-09-26T00:56:30.491Z,6.70
2022-09-26T00:59:04.433Z,5.97
2022-09-26T01:01:32.466Z,7.07
2022-09-26T01:04:03.405Z,7.00
2022-09-26T01:06:31.325Z,6.15
2022-09-26T01:09:01.676Z,6.53
2022-09-26T01:11:31.879Z,6.63
2022-09-26T01:14:00.256Z,6.80
2022-09-26T01:16:28.461Z,6.28
2022-09-26T01:18:56.318Z,5.85
2022-09-26T01:21:40.365Z,7.50
2022-09-26T01:24:29.313Z,7.18
2022-09-26T01:27:29.989Z,7.13
2022-09-26T01:30:10.459Z,6.47
2022-09-26T01:33:28.109Z,6.43
2022-09-26T01:36:19.944Z,6.22
2022-09-26T01:38:59.173Z,7.03
2022-09-26T01:41:44.032Z,6.80
2022-09-26T01:44:32.217Z,7.40
2022-09-26T01:47:09.384Z,6.88
2022-09-26T01:49:45.242Z,7.18
2022-09-26T01:52:19.419Z,7.22
2022-09-26T01:54:54.184Z,6.85
2022-09-26T01:57:28.100Z,7.60
2022-09-26T02:00:00.070Z,7.78
2022-09-26T02:02:34.098Z,7.13
2022-09-26T02:05:08.486Z,8.73
2022-09-26T02:07:40.773Z,8.57
2022-09-26T02:10:14.782Z,9.23
2022-09-26T02:12:45.996Z,8.77
2022-09-26T02:15:19.032Z,9.05
2022-09-26T02:17:52.723Z,9.00
2022-09-26T02:20:26.826Z,8.82
2022-09-26T02:22:54.582Z,8.93
2022-09-26T02:25:22.303Z,8.68
2022-09-26T02:27:50.483Z,9.10
2022-09-26T02:30:18.284Z,7.78
2022-09-26T02:32:46.096Z,8.52
2022-09-26T02:35:36.527Z,8.20
2022-09-26T02:38:06.694Z,7.40
2022-09-26T02:40:40.374Z,8.02
2022-09-26T02:43:34.331Z,8.18
2022-09-26T02:46:13.349Z,7.63
2022-09-26T02:48:54.469Z,8.48
2022-09-26T02:51:35.635Z,8.23
2022-09-26T02:54:22.108Z,7.93
2022-09-26T02:57:05.769Z,8.57
2022-09-26T02:59:38.759Z,7.97
2022-09-26T03:02:13.331Z,8.75
2022-09-26T03:04:47.436Z,8.65
2022-09-26T03:07:24.529Z,8.50
2022-09-26T03:09:54.029Z,7.65
2022-09-26T03:12:23.824Z,8.70
2022-09-26T03:14:55.475Z,8.63
2022-09-26T03:17:28.913Z,7.85
2022-09-26T03:20:00.299Z,8.50
2022-09-26T03:22:29.359Z,8.13
2022-09-26T03:24:59.457Z,8.15
2022-09-26T03:27:27.668Z,7.55
2022-09-26T03:29:55.420Z,7.75
2022-09-26T03:32:23.137Z,7.72
2022-09-26T03:34:51.626Z,7.65
2022-09-26T03:37:19.366Z,8.95
2022-09-26T03:39:48.453Z,7.53
2022-09-26T03:42:16.667Z,8.02
2022-09-26T03:44:44.684Z,7.88
2022-09-26T03:47:12.396Z,7.63
2022-09-26T03:49:40.080Z,7.88
2022-09-26T03:52:11.524Z,7.70
2022-09-26T03:54:39.264Z,7.78
2022-09-26T03:57:09.800Z,8.00
2022-09-26T03:59:37.468Z,7.97
2022-09-26T04:02:05.671Z,8.85
2022-09-26T04:04:33.483Z,9.35
2022-09-26T04:07:01.208Z,8.80
2022-09-26T04:09:29.176Z,9.20
2022-09-26T04:11:56.874Z,9.35
2022-09-26T04:14:26.391Z,8.27
2022-09-26T04:16:54.101Z,9.65
2022-09-26T04:19:21.777Z,9.10
2022-09-26T04:21:52.015Z,10.02
2022-09-26T04:24:19.739Z,9.45
2022-09-26T04:26:47.667Z,10.63
2022-09-26T04:29:15.520Z,9.60
2022-09-26T04:31:44.903Z,10.27
2022-09-26T04:34:14.737Z,10.70
2022-09-26T04:36:43.597Z,11.32
2022-09-26T04:39:11.604Z,11.48
2022-09-26T04:41:39.660Z,11.30
2022-09-26T04:44:07.395Z,12.15
2022-09-26T04:46:35.170Z,12.13
2022-09-26T04:49:04.378Z,12.15
2022-09-26T04:51:33.037Z,11.60
2022-09-26T04:54:00.867Z,12.13
2022-09-26T04:56:30.406Z,12.65
2022-09-26T04:58:59.644Z,13.40
2022-09-26T05:01:27.937Z,12.32
2022-09-26T05:03:56.977Z,13.13
2022-09-26T05:06:26.430Z,13.40
2022-09-26T05:08:54.728Z,13.18
2022-09-26T05:11:22.503Z,13.75
2022-09-26T05:13:53.598Z,13.02
2022-09-26T05:16:22.459Z,13.80
2022-09-26T05:18:51.551Z,14.63
2022-09-26T05:21:19.220Z,13.27
2022-09-26T05:24:05.699Z,12.15
2022-09-26T05:26:42.725Z,11.18
2022-09-26T05:29:11.982Z,10.77
2022-09-26T05:31:40.661Z,10.70
2022-09-26T05:34:13.157Z,11.45
2022-09-26T05:36:43.373Z,11.40
2022-09-26T05:39:26.370Z,10.55
2022-09-26T05:41:54.695Z,9.77
2022-09-26T05:44:22.372Z,10.25
2022-09-26T05:46:50.369Z,9.10
2022-09-26T05:49:18.149Z,10.25
2022-09-26T05:51:46.472Z,9.82
2022-09-26T05:54:16.484Z,10.05
2022-09-26T05:56:44.216Z,9.93
2022-09-26T05:59:12.306Z,9.40
2022-09-26T06:01:40.136Z,9.48
2022-09-26T06:04:07.921Z,10.45
2022-09-26T06:06:35.672Z,9.55
2022-09-26T06:09:03.764Z,8.82
2022-09-26T06:11:32.792Z,9.20
2022-09-26T06:14:01.196Z,9.02
2022-09-26T06:16:29.835Z,8.73
2022-09-26T06:18:58.551Z,8.40
2022-09-26T06:21:27.346Z,8.40
2022-09-26T06:23:55.034Z,9.40
2022-09-26T06:26:24.873Z,9.23
2022-09-26T06:28:58.166Z,8.48
2022-09-26T06:31:26.500Z,8.55
2022-09-26T06:33:55.141Z,7.93
2022-09-26T06:36:24.312Z,9.70
2022-09-26T06:38:54.204Z,9.15
2022-09-26T06:41:21.876Z,8.52
2022-09-26T06:43:49.827Z,9.57
2022-09-26T06:46:19.009Z,8.80
2022-09-26T06:48:46.981Z,9.32
2022-09-26T06:51:15.145Z,9.52
2022-09-26T06:53:45.756Z,10.13
2022-09-26T06:56:14.593Z,9.45
2022-09-26T06:58:42.896Z,10.85
2022-09-26T07:01:11.117Z,9.63
2022-09-26T07:03:45.068Z,10.35
2022-09-26T07:06:13.895Z,12.02
2022-09-26T07:09:01.446Z,12.55
2022-09-26T07:11:56.200Z,11.65
2022-09-26T07:14:17.655Z,12.70
2022-09-26T07:16:45.741Z,10.70
2022-09-26T07:19:16.103Z,11.43
2022-09-26T07:21:43.791Z,11.38
2022-09-26T07:24:14.004Z,10.98
2022-09-26T07:26:42.039Z,10.23
2022-09-26T07:29:10.256Z,10.20
2022-09-26T07:31:38.010Z,10.32
2022-09-26T07:34:05.928Z,9.82
2022-09-26T07:36:35.118Z,9.32
2022-09-26T07:39:02.829Z,9.23
2022-09-26T07:41:31.371Z,8.18
2022-09-26T07:47:04.550Z,7.75
2022-09-26T07:49:49.873Z,8.45
2022-09-26T07:52:22.077Z,7.22
2022-09-26T07:54:50.019Z,8.07
2022-09-26T07:57:19.272Z,7.20
2022-09-26T07:59:49.583Z,6.13
2022-09-26T08:02:22.483Z,5.55
2022-09-26T08:04:50.418Z,5.25
2022-09-26T08:07:19.463Z,4.63
2022-09-26T08:09:47.180Z,4.97
2022-09-26T08:12:15.553Z,3.88
2022-09-26T08:14:43.301Z,4.03
2022-09-26T08:17:14.327Z,4.75
2022-09-26T08:19:42.272Z,3.85
2022-09-26T08:22:10.176Z,2.97
2022-09-26T08:24:39.792Z,3.03
2022-09-26T08:27:09.371Z,3.30
2022-09-26T08:29:37.064Z,3.40
2022-09-26T08:32:04.859Z,3.10
2022-09-26T08:34:34.960Z,19.73
2022-09-26T08:37:02.666Z,3.13
2022-09-26T08:39:33.390Z,3.20
2022-09-26T08:42:15.324Z,2.72
2022-09-26T08:45:00.718Z,2.70
2022-09-26T08:47:39.352Z,3.07
2022-09-26T08:50:15.854Z,2.78
2022-09-26T08:52:48.552Z,2.60
2022-09-26T08:55:18.744Z,3.13
2022-09-26T08:57:51.308Z,2.38
2022-09-26T09:00:22.440Z,2.33
2022-09-26T09:02:58.431Z,1.95
2022-09-26T09:05:29.357Z,1.88
2022-09-26T09:07:59.331Z,2.08
2022-09-26T09:10:40.597Z,2.63
2022-09-26T09:13:23.034Z,2.00
2022-09-26T09:16:04.857Z,2.20
2022-09-26T09:18:40.608Z,1.80
2022-09-26T09:21:24.330Z,2.00
2022-09-26T09:24:07.366Z,1.77
2022-09-26T09:32:12.133Z,2.13
2022-09-26T09:34:42.489Z,1.83
2022-09-26T09:37:14.827Z,2.30
2022-09-26T09:39:46.917Z,1.85
2022-09-26T09:42:22.718Z,2.15
2022-09-26T09:44:56.291Z,2.00
2022-09-26T09:47:27.167Z,2.25
2022-09-26T09:49:55.143Z,2.20
2022-09-26T09:52:48.569Z,2.25
2022-09-26T09:55:36.512Z,2.20
2022-09-26T09:58:24.075Z,2.13
2022-09-26T10:01:01.481Z,2.05
2022-09-26T10:03:37.264Z,2.25
2022-09-26T10:08:36.903Z,2.20
2022-09-26T10:11:16.828Z,2.47
2022-09-26T10:13:46.069Z,2.20
2022-09-26T10:16:15.660Z,2.67
2022-09-26T10:19:03.388Z,1.88
2022-09-26T10:21:34.247Z,1.50
2022-09-26T10:24:04.632Z,1.60
2022-09-26T10:26:35.844Z,1.73
2022-09-26T10:29:08.090Z,1.33
2022-09-26T10:31:42.809Z,1.98
2022-09-26T10:34:24.438Z,1.47
2022-09-26T10:36:52.764Z,1.90
2022-09-26T10:39:40.100Z,1.95
2022-09-26T10:42:16.226Z,1.90
2022-09-26T10:44:45.954Z,1.80
2022-09-26T10:47:17.796Z,1.38
2022-09-26T10:49:50.984Z,1.67
2022-09-26T10:52:23.504Z,1.70
2022-09-26T10:54:58.948Z,1.58
2022-09-26T10:57:30.871Z,1.80
2022-09-26T11:00:01.345Z,1.55
2022-09-26T11:02:30.423Z,1.50
2022-09-26T11:05:18.872Z,2.03
2022-09-26T11:07:49.447Z,1.90
2022-09-26T11:10:24.029Z,2.03
2022-09-26T11:12:59.747Z,1.48
2022-09-26T11:15:28.669Z,1.40
2022-09-26T11:17:58.537Z,1.85
2022-09-26T11:20:40.528Z,1.67
2022-09-26T11:23:24.210Z,1.77
2022-09-26T11:26:01.170Z,1.90
2022-09-26T11:28:34.227Z,2.13
2022-09-26T11:31:09.756Z,1.58
2022-09-26T11:33:44.044Z,1.27
2022-09-26T11:36:28.700Z,1.40
2022-09-26T11:38:57.817Z,1.20
2022-09-26T11:41:38.069Z,1.55
2022-09-26T11:44:22.164Z,1.10
2022-09-26T11:47:04.458Z,1.23
2022-09-26T11:49:52.126Z,1.10
2022-09-26T11:52:48.393Z,1.00
2022-09-26T11:55:24.747Z,0.73
2022-09-26T11:58:03.553Z,0.93
2022-09-26T12:00:41.790Z,0.98
2022-09-26T12:03:40.915Z,1.00
2022-09-26T12:06:21.879Z,0.70
2022-09-26T12:09:12.036Z,0.98
2022-09-26T12:11:48.437Z,0.85
2022-09-26T12:14:29.076Z,0.80
2022-09-26T12:17:02.736Z,0.90
2022-09-26T12:19:40.104Z,0.90
2022-09-26T12:22:31.737Z,0.60
2022-09-26T12:25:20.356Z,1.05
2022-09-26T12:27:57.542Z,0.85
2022-09-26T12:30:28.122Z,0.80
2022-09-26T12:33:15.852Z,0.80
2022-09-26T12:35:52.406Z,0.80
2022-09-26T12:38:54.361Z,0.70
2022-09-26T12:41:41.389Z,1.30
2022-09-26T12:44:24.404Z,0.70
2022-09-26T12:47:21.999Z,1.00
2022-09-26T12:50:14.404Z,1.20
2022-09-26T12:53:10.019Z,1.00
2022-09-26T12:55:44.823Z,1.00
2022-09-26T12:58:29.004Z,0.68
2022-09-26T13:01:04.792Z,0.70
2022-09-26T13:04:14.647Z,0.90
2022-09-26T13:07:21.105Z,0.57
2022-09-26T13:10:07.837Z,0.77
2022-09-26T13:12:52.099Z,0.70
2022-09-26T13:15:28.837Z,0.60
2022-09-26T13:18:01.774Z,0.90
2022-09-26T13:20:35.257Z,0.63
2022-09-26T13:23:09.704Z,1.05
2022-09-26T13:25:49.354Z,0.68
2022-09-26T13:28:23.989Z,0.60
2022-09-26T13:30:57.896Z,0.90
2022-09-26T13:33:32.400Z,0.73
2022-09-26T13:36:04.350Z,0.68
2022-09-26T13:38:46.035Z,0.85
2022-09-26T13:41:30.786Z,0.68
2022-09-26T13:44:10.312Z,0.60
2022-09-26T13:46:49.810Z,0.47
2022-09-26T13:49:42.799Z,0.55
2022-09-26T13:52:35.081Z,0.90
2022-09-26T13:55:12.080Z,0.80
2022-09-26T13:57:49.684Z,0.70
2022-09-26T14:00:41.457Z,0.80
2022-09-26T14:03:37.177Z,0.70
2022-09-26T14:06:20.184Z,1.27
2022-09-26T14:09:23.703Z,0.77
2022-09-26T14:11:53.228Z,0.45
2022-09-26T14:14:39.081Z,0.50
2022-09-26T14:18:01.255Z,0.90
2022-09-26T14:20:34.334Z,0.40
2022-09-26T14:23:03.081Z,0.80
2022-09-26T14:25:56.593Z,0.52
2022-09-26T14:28:33.711Z,0.40
2022-09-26T14:31:37.639Z,0.40
2022-09-26T14:34:17.107Z,0.60
2022-09-26T14:36:46.444Z,0.50
2022-09-26T14:39:28.267Z,0.60
2022-09-26T14:41:58.766Z,0.88
2022-09-26T14:44:35.046Z,0.90
2022-09-26T14:47:16.081Z,8.23
2022-09-26T14:49:54.708Z,0.90
2022-09-26T14:52:24.593Z,0.93
2022-09-26T14:55:01.100Z,1.00
2022-09-26T14:57:32.455Z,0.65
2022-09-26T15:00:01.881Z,0.70
2022-09-26T15:02:39.439Z,0.90
2022-09-26T15:05:25.725Z,0.90
2022-09-26T15:07:56.848Z,0.57
2022-09-26T15:10:35.413Z,0.77
2022-09-26T15:13:10.709Z,0.80
2022-09-26T15:15:48.196Z,1.02
2022-09-26T15:18:25.058Z,0.80
2022-09-26T15:21:03.300Z,0.80
2022-09-26T15:23:34.370Z,0.75
2022-09-26T15:26:03.541Z,1.35
2022-09-26T15:28:34.667Z,0.80
2022-09-26T15:31:24.231Z,0.90
2022-09-26T15:33:56.335Z,1.80
2022-09-26T15:36:29.470Z,1.30
2022-09-26T15:38:58.819Z,2.03
2022-09-26T15:41:44.451Z,1.35
2022-09-26T15:44:21.387Z,1.30
2022-09-26T15:46:50.482Z,1.20
2022-09-26T15:49:22.858Z,1.27
2022-09-26T15:51:55.289Z,1.50
2022-09-26T15:54:28.588Z,1.80
2022-09-26T15:57:01.459Z,1.90
2022-09-26T15:59:33.356Z,1.58
2022-09-26T16:02:02.763Z,1.90
2022-09-26T16:04:32.319Z,1.33
2022-09-26T16:07:03.465Z,1.10
2022-09-26T16:09:33.372Z,1.25
2022-09-26T16:12:05.002Z,1.13
2022-09-26T16:14:40.219Z,1.40
2022-09-26T16:17:18.770Z,1.33
2022-09-26T16:19:48.941Z,1.63
2022-09-26T16:22:45.819Z,1.33
2022-09-26T16:27:53.867Z,1.30
2022-09-26T16:30:41.451Z,1.95
2022-09-26T16:33:31.872Z,1.15
2022-09-26T16:36:06.077Z,1.35
2022-09-26T16:38:36.987Z,1.92
2022-09-26T16:41:08.849Z,1.70
2022-09-26T16:43:38.961Z,2.38
2022-09-26T16:46:09.706Z,1.75
2022-09-26T16:48:40.541Z,2.30
2022-09-26T16:51:20.656Z,1.73
2022-09-26T16:53:53.225Z,1.75
2022-09-26T16:56:23.684Z,1.90
2022-09-26T16:58:54.567Z,1.90
2022-09-26T17:01:40.139Z,2.47
2022-09-26T17:04:13.386Z,2.30
2022-09-26T17:06:41.288Z,2.22
2022-09-26T17:09:16.483Z,1.98
2022-09-26T17:11:47.174Z,2.00
2022-09-26T17:14:18.427Z,2.35
2022-09-26T17:16:48.364Z,2.20
2022-09-26T17:19:18.255Z,2.10
2022-09-26T17:21:49.128Z,2.10
2022-09-26T17:24:22.204Z,2.13
2022-09-26T17:26:54.327Z,2.47
2022-09-26T17:29:27.296Z,2.55
2022-09-26T17:31:57.226Z,4.63
2022-09-26T17:34:28.217Z,1.90
2022-09-26T17:36:58.596Z,1.73
2022-09-26T17:39:29.102Z,1.85
2022-09-26T17:41:59.040Z,1.88
2022-09-26T17:44:26.975Z,2.10
2022-09-26T17:46:57.157Z,1.75
2022-09-26T17:49:28.480Z,1.60
2022-09-26T17:52:00.483Z,1.80
2022-09-26T17:54:34.520Z,1.88
2022-09-26T17:57:02.446Z,2.15
2022-09-26T17:59:30.368Z,1.60
2022-09-26T18:02:02.270Z,1.50
2022-09-26T18:04:31.359Z,1.52
2022-09-26T18:07:04.264Z,1.65
2022-09-26T18:09:36.242Z,1.52
2022-09-26T18:12:04.970Z,1.40
2022-09-26T18:14:35.349Z,1.52
2022-09-26T18:17:04.237Z,1.27
2022-09-26T18:19:32.308Z,1.65
2022-09-26T18:22:00.239Z,1.38
2022-09-26T18:24:30.184Z,1.70
2022-09-26T18:27:03.790Z,1.40
2022-09-26T18:29:35.811Z,1.60
2022-09-26T18:32:04.891Z,1.52
2022-09-26T18:34:32.799Z,1.38
2022-09-26T18:37:02.052Z,1.73
2022-09-26T18:39:30.474Z,1.58
2022-09-26T18:42:03.508Z,2.00
2022-09-26T18:44:33.178Z,2.30
2022-09-26T18:47:02.098Z,2.47
2022-09-26T18:49:31.835Z,1.45
2022-09-26T18:51:59.974Z,2.60
2022-09-26T18:54:27.911Z,1.90
2022-09-26T18:57:13.633Z,1.80
2022-09-26T18:59:45.137Z,2.10
2022-09-26T19:02:22.399Z,1.75
2022-09-26T19:04:51.241Z,1.92
2022-09-26T19:07:21.421Z,1.70
2022-09-26T19:09:50.729Z,1.33
2022-09-26T19:12:18.764Z,1.20
2022-09-26T19:14:47.996Z,1.20
2022-09-26T19:17:15.923Z,1.38
2022-09-26T19:19:43.784Z,1.85
2022-09-26T19:22:15.085Z,1.50
2022-09-26T19:24:46.304Z,1.92
2022-09-26T19:27:17.658Z,1.50
2022-09-26T19:29:53.297Z,1.58
2022-09-26T19:32:32.356Z,1.77
2022-09-26T19:35:02.831Z,1.92
2022-09-26T19:37:30.796Z,1.50
2022-09-26T19:39:59.072Z,2.05
2022-09-26T19:42:27.145Z,1.40
2022-09-26T19:44:58.275Z,2.10
2022-09-26T19:47:26.786Z,1.40
2022-09-26T19:49:54.576Z,1.77
2022-09-26T19:52:22.944Z,2.00
2022-09-26T19:54:50.766Z,1.60
2022-09-26T19:57:20.719Z,1.25
2022-09-26T19:59:49.293Z,1.58
2022-09-26T20:02:20.608Z,1.00
2022-09-26T20:04:48.848Z,1.30
2022-09-26T20:07:18.187Z,1.40
2022-09-26T20:09:46.643Z,0.95
2022-09-26T20:12:14.846Z,1.08
2022-09-26T20:14:42.872Z,1.23
2022-09-26T20:17:19.156Z,0.93
2022-09-26T20:19:50.213Z,1.00
2022-09-26T20:22:20.709Z,1.60
2022-09-26T20:24:52.296Z,0.90
2022-09-26T20:27:22.563Z,0.70
2022-09-26T20:30:08.738Z,1.05
2022-09-26T20:32:37.277Z,0.63
2022-09-26T20:35:07.173Z,0.77
2022-09-26T20:37:38.582Z,0.63
2022-09-26T20:40:13.343Z,0.85
2022-09-26T20:42:45.039Z,0.80
2022-09-26T20:45:16.940Z,0.90
2022-09-26T20:47:45.474Z,0.80
2022-09-26T20:50:18.463Z,0.70
2022-09-26T20:52:46.265Z,0.80
2022-09-26T20:55:18.229Z,1.10
2022-09-26T20:57:47.823Z,0.90
2022-09-26T21:00:16.695Z,0.98
2022-09-26T21:02:46.205Z,1.02
2022-09-26T21:05:20.106Z,0.95
2022-09-26T21:07:48.171Z,0.88
2022-09-26T21:10:24.260Z,1.30
2022-09-26T21:15:20.588Z,0.95
2022-09-26T21:17:50.177Z,1.13
2022-09-26T21:20:24.249Z,1.35
2022-09-26T21:22:52.419Z,1.20
2022-09-26T21:25:22.284Z,1.13
2022-09-26T21:27:54.337Z,1.40
2022-09-26T21:30:22.224Z,1.30
2022-09-26T21:32:53.136Z,1.42
2022-09-26T21:35:23.968Z,1.30
2022-09-26T21:37:53.616Z,1.13
2022-09-26T21:40:25.050Z,1.02
2022-09-26T21:42:56.231Z,0.90
2022-09-26T21:45:27.617Z,0.98
2022-09-26T21:47:56.068Z,1.25
2022-09-26T21:50:28.194Z,1.33
2022-09-26T21:53:00.974Z,1.13
2022-09-26T21:55:35.570Z,1.10
2022-09-26T21:58:08.108Z,1.30
2022-09-26T22:00:36.023Z,1.08
2022-09-26T22:03:03.829Z,1.58
2022-09-26T22:05:33.021Z,1.10
2022-09-26T22:08:01.734Z,1.30
2022-09-26T22:10:29.993Z,0.90
2022-09-26T22:12:57.867Z,0.95
2022-09-26T22:15:25.837Z,0.90
2022-09-26T22:17:54.263Z,1.30
2022-09-26T22:20:22.416Z,1.40
2022-09-26T22:22:51.651Z,1.20
2022-09-26T22:25:19.475Z,1.30
2022-09-26T22:27:47.282Z,1.50
2022-09-26T22:30:15.092Z,1.10
2022-09-26T22:32:42.931Z,1.30
2022-09-26T22:35:11.033Z,1.45
2022-09-26T22:37:39.101Z,1.10
2022-09-26T22:40:09.596Z,1.90
2022-09-26T22:42:37.399Z,1.77
2022-09-26T22:45:05.814Z,1.33
2022-09-26T22:47:33.638Z,1.15
2022-09-26T22:50:01.527Z,1.48
2022-09-26T22:52:29.373Z,1.30
2022-09-26T22:54:57.264Z,1.30
2022-09-26T22:57:26.469Z,1.10
2022-09-26T22:59:54.278Z,1.08
2022-09-26T23:02:22.112Z,1.50
2022-09-26T23:04:49.953Z,1.80
2022-09-26T23:07:19.953Z,1.92
2022-09-26T23:09:47.911Z,1.20
2022-09-26T23:12:15.727Z,1.20
2022-09-26T23:14:44.918Z,1.20
2022-09-26T23:17:13.051Z,0.90
2022-09-26T23:19:41.295Z,1.10
2022-09-26T23:22:09.091Z,0.88
2022-09-26T23:24:37.389Z,0.80
2022-09-26T23:27:05.203Z,1.17
2022-09-26T23:29:33.062Z,1.10
2022-09-26T23:32:02.536Z,1.30
2022-09-26T23:34:30.389Z,1.10
2022-09-26T23:36:58.205Z,1.20
2022-09-26T23:39:26.004Z,1.33
2022-09-26T23:41:53.767Z,1.42
2022-09-26T23:44:21.573Z,1.17
2022-09-26T23:46:49.338Z,1.33
2022-09-26T23:49:18.602Z,1.13
2022-09-26T23:51:47.463Z,1.40
2022-09-26T23:54:15.249Z,1.20
2022-09-26T23:56:43.037Z,1.58
2022-09-26T23:59:10.838Z,1.38
